My Meet Scores
Rebecca Johnston, St. Charles Gymnastics Academy - MyMeetScores.com
Top100 | Top Teams | Upcoming Meets | Completed Meets | Latest | Add Scores | Help| Support | Bookmark and Share

Rebecca Johnston, St. Charles Gymnastics Academy
Personal Bests
LevelVault BarsBeamFloorAA
38.8508.050 8.4508.05033.400
48.7509.475 9.4509.10036.300
69.5009.400 9.4009.55037.575
AllLevels8.5007.850 7.9007.87532.125
Meet Scores
Date Meet Team Session Level Division Vault Bars Beam Floor AA
2019-03-15 Illinois State Championship Level 6,9,10 St. Charles Gymnastics Academy 12 6 Jr F 9.325 4 9.400 8 9.400 7T 9.450 11T 37.575 4
2019-02-15 Women's Midwest Open St. Charles Gymnastics Academy 01 6 Junior A 9.500 1T 9.200 3T 9.150 7 9.475 7 37.325 1
2019-01-11 St Jude Benefit Meet St. Charles Gymnastics Academy 2B 6 Jr B 9.000 4 9.275 6 8.900 8 9.550 8 36.725 5
2018-12-07 St. Nick Invite 2018 St. Charles Gymnastics Academy 2 6 JrB 8.800 9 8.725 9 8.775 13 9.500 5T 35.800 12
2018-02-23 Kinetic Classic St. Charles Gymnastics Academy 9 6 Younger 9.300 7T 9.000 33T 9.400 11T 9.475 18T 37.175 10
2018-02-16 Big Classic St. Charles Gymnastics Academy 1A 6 Junior A 8.925 4 9.200 3T 9.250 7T 9.000 13 36.375 5
2018-01-19 2018 SCEGA California Classic St. Charles Gymnastics Academy 1O 6 Child B 8.975 11 8.875 11T 9.125 12 9.075 16 36.050 11
2018-01-12 St Jude Benefit Meet St. Charles Gymnastics Academy 4C 6 JrA 8.850 6 9.250 3T 8.750 9T 8.750 16 35.600 9
2017-12-14 2017 Women's Hawaiian Pineapple Classic St. Charles Gymnastics Academy 9A 6 Ages10U 9.025 7 9.150 5T 8.400 20 9.125 17 35.700 15T
2017-11-17 SCGA Classic St. Charles Gymnastics Academy 3 6 JrA 9.050 7 8.600 8 7.400 12 9.075 9 34.125 11
2017-02-24 Kinetic Classic St. Charles Gymnastics Academy 5,6 4 All Ages 8.500 88T 9.475 15T 9.325 27T 9.000 60T 36.300 37T
2017-02-10 IGI Chicago Style Gymnastics Meet St. Charles Gymnastics Academy 621L 4 JrA 8.750 6 9.150 9 8.525 16 9.100 7 35.525 9
2017-01-20 2017 Bravo Classic St. Charles Gymnastics Academy 07B 4 9yrs 8.350 11T 9.225 9 9.450 4T 9.075 8 36.100 5
2017-01-13 St Jude Benefit Meet St. Charles Gymnastics Academy 3A 4 Jr B 8.500 2 8.900 5T 9.250 6 8.500 9 35.150 3
2016-12-15 2016 Hawaiian Pineapple Sanction St. Charles Gymnastics Academy 9A 4 Age 9 8.750 8 9.050 7 9.150 10T 9.025 10 35.975 7
2016-12-02 Ultimate Wish Classic St. Charles Gymnastics Academy 13 4 Jr B 8.650 6 8.900 4 9.300 2T 9.000 9 35.850 2
2016-03-10 2016 Illinois Level 4 State Meet St. Charles Gymnastics Academy All 4 Child-B 8.150 27 7.000 32 8.550 29 8.650 23 32.350 31
2016-02-05 St. Valentines Classic St. Charles Gymnastics Academy 1A AllLevels All Ages 8.500 36T 7.850 53 7.900 49T 7.875 65T 32.125 54
2016-01-22 King Arthur Invitational St. Charles Gymnastics Academy S12 4 Jr.A 8.225 10 7.950 14 8.150 17 8.075 17 32.400 16
2016-01-08 St Jude Benefit Meet St. Charles Gymnastics Academy 4A 4 Jr A 8.400 15 8.125 16 8.425 18T 8.550 12 33.500 16
2015-12-17 2015 Hawaiian Pineapple Classic St. Charles Gymnastics Academy 1A 4 Ages 8U 8.225 9 7.350 16 8.550 13T 8.675 14 32.800 13
2015-12-04 2015 Ultimate Wish Classic St. Charles Gymnastics Academy 7 4 All 8.000 64 8.150 48 8.500 55 8.400 67 33.050 61
2015-02-20 Midwest Open 2015 St. Charles Gymnastics Academy 3A 3 6-7 8.850 11 8.050 14 8.450 10 8.050 14 33.400 13
Get your scores on
a t-shirt, pin, or hoodie

www.lazysuits.com